createdAt,value
2023-02-12T00:00:32.522Z,58.00
2023-02-12T00:03:02.340Z,54.03
2023-02-12T00:05:35.665Z,54.80
2023-02-12T00:08:05.453Z,49.20
2023-02-12T00:10:35.324Z,55.50
2023-02-12T00:13:05.090Z,53.83
2023-02-12T00:15:34.955Z,57.77
2023-02-12T00:18:04.784Z,54.33
2023-02-12T00:20:37.291Z,56.37
2023-02-12T00:23:07.796Z,51.37
2023-02-12T00:25:37.618Z,54.23
2023-02-12T00:28:07.475Z,53.77
2023-02-12T00:30:38.152Z,56.67
2023-02-12T00:33:07.924Z,56.80
2023-02-12T00:35:40.310Z,48.77
2023-02-12T00:38:10.339Z,55.50
2023-02-12T00:40:40.173Z,49.17
2023-02-12T00:43:09.918Z,61.07
2023-02-12T00:45:39.716Z,55.73
2023-02-12T00:48:09.745Z,58.83
2023-02-12T00:50:42.249Z,52.90
2023-02-12T00:53:12.122Z,53.50
2023-02-12T00:55:41.896Z,50.27
2023-02-12T00:58:12.712Z,50.50
2023-02-12T01:00:42.584Z,56.27
2023-02-12T01:03:12.362Z,53.23
2023-02-12T01:05:45.257Z,56.53
2023-02-12T01:08:15.933Z,55.77
2023-02-12T01:10:49.540Z,57.87
2023-02-12T01:13:19.534Z,50.10
2023-02-12T01:15:49.361Z,56.70
2023-02-12T01:18:19.286Z,58.27
2023-02-12T01:20:51.656Z,55.57
2023-02-12T01:23:21.483Z,55.40
2023-02-12T01:25:51.241Z,51.70
2023-02-12T01:28:21.281Z,48.97
2023-02-12T01:30:51.327Z,48.33
2023-02-12T01:33:21.239Z,55.00
2023-02-12T01:35:53.974Z,54.83
2023-02-12T01:38:23.899Z,53.50
2023-02-12T01:40:53.731Z,51.80
2023-02-12T01:43:23.516Z,44.00
2023-02-12T01:45:58.126Z,48.47
2023-02-12T01:48:31.158Z,51.83
2023-02-12T01:51:05.395Z,48.57
2023-02-12T01:53:39.591Z,52.67
2023-02-12T01:56:09.965Z,48.50
2023-02-12T01:58:43.319Z,54.70
2023-02-12T02:01:18.677Z,51.47
2023-02-12T02:03:51.076Z,56.40
2023-02-12T02:06:28.362Z,64.10
2023-02-12T02:08:59.754Z,51.20
2023-02-12T02:11:42.105Z,56.20
2023-02-12T02:14:24.277Z,53.17
2023-02-12T02:17:04.336Z,60.80
2023-02-12T02:19:48.730Z,50.63
2023-02-12T02:22:29.809Z,50.73
2023-02-12T02:25:29.520Z,48.87
2023-02-12T02:28:10.071Z,55.57
2023-02-12T02:30:51.412Z,49.30
2023-02-12T02:33:37.203Z,52.50
2023-02-12T02:36:20.326Z,54.13
2023-02-12T02:38:57.365Z,55.70
2023-02-12T02:41:34.401Z,56.53
2023-02-12T02:44:08.134Z,52.60
2023-02-12T02:46:45.040Z,51.77
2023-02-12T02:49:32.331Z,46.97
2023-02-12T02:52:06.804Z,50.93
2023-02-12T02:54:41.753Z,48.87
2023-02-12T02:57:16.606Z,48.87
2023-02-12T02:59:50.701Z,47.97
2023-02-12T03:02:28.056Z,50.93
2023-02-12T03:05:01.446Z,48.87
2023-02-12T03:07:34.666Z,43.80
2023-02-12T03:10:07.609Z,48.50
2023-02-12T03:12:42.239Z,50.20
2023-02-12T03:15:21.203Z,53.97
2023-02-12T03:17:54.138Z,46.20
2023-02-12T03:20:28.326Z,47.93
2023-02-12T03:23:03.789Z,47.97
2023-02-12T03:25:38.345Z,53.50
2023-02-12T03:28:12.893Z,51.07
2023-02-12T03:30:51.710Z,49.67
2023-02-12T03:33:33.052Z,46.23
2023-02-12T03:36:08.854Z,45.00
2023-02-12T03:38:43.928Z,51.10
2023-02-12T03:41:21.191Z,49.10
2023-02-12T03:43:56.031Z,52.27
2023-02-12T03:46:31.327Z,51.60
2023-02-12T03:49:10.145Z,56.40
2023-02-12T03:51:42.549Z,50.10
2023-02-12T03:54:16.220Z,44.10
2023-02-12T03:56:52.342Z,50.97
2023-02-12T03:59:22.661Z,49.13
2023-02-12T04:01:56.223Z,52.60
2023-02-12T04:04:30.210Z,53.63
2023-02-12T04:07:00.894Z,49.77
2023-02-12T04:09:31.986Z,49.73
2023-02-12T04:12:18.255Z,50.53
2023-02-12T04:14:55.832Z,50.83
2023-02-12T04:17:33.377Z,47.93
2023-02-12T04:20:14.088Z,53.57
2023-02-12T04:22:52.697Z,54.13
2023-02-12T04:25:37.061Z,51.00
2023-02-12T04:28:16.231Z,49.03
2023-02-12T04:30:50.690Z,50.37
2023-02-12T04:33:24.679Z,50.97
2023-02-12T04:36:03.633Z,47.73
2023-02-12T04:38:39.219Z,50.33
2023-02-12T04:41:12.573Z,53.47
2023-02-12T04:43:42.366Z,54.67
2023-02-12T04:46:12.470Z,49.80
2023-02-12T04:48:53.960Z,57.83
2023-02-12T04:51:26.628Z,50.83
2023-02-12T04:53:56.431Z,57.37
2023-02-12T04:56:26.475Z,54.47
2023-02-12T04:58:57.937Z,55.27
2023-02-12T05:01:30.961Z,52.27
2023-02-12T05:04:01.357Z,45.00
2023-02-12T05:06:34.402Z,47.90
2023-02-12T05:09:04.322Z,50.33
2023-02-12T05:11:34.548Z,49.23
2023-02-12T05:14:04.570Z,46.37
2023-02-12T05:16:35.384Z,52.60
2023-02-12T05:19:05.233Z,53.73
2023-02-12T05:21:37.612Z,49.47
2023-02-12T05:24:08.065Z,51.13
2023-02-12T05:26:38.492Z,48.93
2023-02-12T05:29:08.297Z,50.27
2023-02-12T05:31:38.558Z,47.27
2023-02-12T05:34:10.049Z,48.30
2023-02-12T05:36:43.189Z,49.87
2023-02-12T05:39:14.309Z,47.90
2023-02-12T05:41:44.245Z,49.13
2023-02-12T05:44:15.366Z,45.80
2023-02-12T05:46:45.702Z,50.87
2023-02-12T05:49:15.562Z,47.93
2023-02-12T05:51:48.054Z,55.70
2023-02-12T05:54:17.825Z,47.47
2023-02-12T05:56:49.853Z,45.90
2023-02-12T05:59:22.015Z,44.97
2023-02-12T06:01:53.510Z,50.60
2023-02-12T06:04:25.802Z,48.50
2023-02-12T06:06:59.883Z,47.57
2023-02-12T06:09:30.210Z,53.57
2023-02-12T06:11:59.978Z,53.87
2023-02-12T06:14:31.879Z,49.33
2023-02-12T06:17:02.280Z,49.83
2023-02-12T06:19:32.046Z,52.60
2023-02-12T06:22:04.414Z,55.53
2023-02-12T06:24:34.286Z,48.67
2023-02-12T06:27:04.062Z,55.03
2023-02-12T06:29:33.856Z,52.40
2023-02-12T06:32:03.890Z,53.27
2023-02-12T06:34:33.865Z,51.80
2023-02-12T06:37:06.251Z,50.37
2023-02-12T06:39:36.094Z,50.53
2023-02-12T06:42:06.007Z,50.27
2023-02-12T06:44:35.896Z,49.67
2023-02-12T06:47:05.661Z,52.37
2023-02-12T06:49:35.544Z,48.57
2023-02-12T06:52:08.021Z,54.80
2023-02-12T06:54:37.807Z,59.00
2023-02-12T06:57:07.593Z,55.30
2023-02-12T06:59:37.542Z,56.80
2023-02-12T07:02:07.327Z,50.73
2023-02-12T07:04:37.925Z,48.60
2023-02-12T07:07:10.704Z,59.33
2023-02-12T07:09:40.488Z,52.77
2023-02-12T07:12:10.899Z,51.93
2023-02-12T07:14:40.897Z,54.13
2023-02-12T07:17:10.711Z,55.23
2023-02-12T07:19:40.673Z,49.57
2023-02-12T07:22:12.996Z,58.13
2023-02-12T07:24:43.659Z,55.10
2023-02-12T07:27:13.453Z,53.87
2023-02-12T07:29:43.242Z,55.70
2023-02-12T07:32:13.242Z,52.80
2023-02-12T07:34:43.086Z,49.20
2023-02-12T07:37:15.662Z,59.60
2023-02-12T07:39:45.411Z,53.63
2023-02-12T07:42:15.280Z,53.73
2023-02-12T07:44:45.083Z,58.87
2023-02-12T07:47:15.883Z,58.17
2023-02-12T07:49:45.624Z,55.67
2023-02-12T07:52:18.341Z,55.80
2023-02-12T07:54:48.359Z,55.93
2023-02-12T07:57:18.387Z,56.50
2023-02-12T07:59:48.201Z,59.23
2023-02-12T08:02:18.101Z,50.10
2023-02-12T08:04:47.965Z,57.53
2023-02-12T08:07:20.465Z,51.00
2023-02-12T08:09:51.150Z,48.37
2023-02-12T08:12:21.762Z,49.20
2023-02-12T08:14:51.565Z,47.20
2023-02-12T08:17:21.318Z,59.33
2023-02-12T08:19:51.127Z,54.37
2023-02-12T08:22:23.580Z,57.63
2023-02-12T08:24:53.382Z,53.90
2023-02-12T08:27:23.193Z,58.30
2023-02-12T08:29:52.974Z,55.43
2023-02-12T08:32:22.766Z,56.30
2023-02-12T08:34:52.997Z,51.03
2023-02-12T08:37:25.392Z,60.53
2023-02-12T08:39:55.246Z,58.20
2023-02-12T08:42:25.833Z,53.27
2023-02-12T08:44:55.784Z,61.80
2023-02-12T08:47:26.311Z,61.77
2023-02-12T08:49:56.099Z,60.03
2023-02-12T08:52:28.889Z,60.10
2023-02-12T08:54:58.727Z,60.43
2023-02-12T08:57:28.893Z,59.63
2023-02-12T08:59:58.988Z,59.47
2023-02-12T09:02:29.009Z,57.60
2023-02-12T09:04:58.924Z,57.80
2023-02-12T09:07:31.398Z,61.00
2023-02-12T09:10:01.198Z,60.53
2023-02-12T09:12:31.009Z,53.30
2023-02-12T09:15:00.787Z,59.37
2023-02-12T09:17:30.774Z,65.80
2023-02-12T09:20:01.575Z,60.57
2023-02-12T09:22:34.207Z,55.10
2023-02-12T09:25:03.951Z,60.03
2023-02-12T09:27:33.799Z,62.67
2023-02-12T09:30:03.549Z,60.90
2023-02-12T09:32:33.527Z,63.73
2023-02-12T09:35:03.329Z,56.83
2023-02-12T09:37:35.771Z,56.83
2023-02-12T09:40:05.472Z,52.60
2023-02-12T09:42:57.982Z,55.63
2023-02-12T09:45:33.298Z,51.77
2023-02-12T09:48:14.768Z,55.03
2023-02-12T09:50:53.326Z,52.23
2023-02-12T09:53:30.767Z,51.43
2023-02-12T09:56:00.738Z,54.47
2023-02-12T09:58:36.754Z,50.30
2023-02-12T10:01:14.588Z,53.50
2023-02-12T10:03:45.242Z,47.53
2023-02-12T10:06:19.133Z,49.60
2023-02-12T10:09:02.514Z,51.10
2023-02-12T10:11:46.459Z,46.60
2023-02-12T10:14:30.643Z,47.07
2023-02-12T10:17:07.003Z,43.57
2023-02-12T10:20:01.202Z,46.17
2023-02-12T10:22:56.207Z,43.63
2023-02-12T10:25:34.524Z,47.67
2023-02-12T10:28:12.339Z,43.70
2023-02-12T10:30:47.131Z,44.03
2023-02-12T10:33:22.376Z,45.73
2023-02-12T10:35:56.657Z,38.97
2023-02-12T10:38:33.268Z,39.30
2023-02-12T10:41:05.711Z,43.03
2023-02-12T10:43:35.864Z,42.93
2023-02-12T10:46:06.268Z,38.67
2023-02-12T10:48:40.955Z,43.50
2023-02-12T10:51:28.409Z,43.13
2023-02-12T10:53:58.761Z,46.77
2023-02-12T10:56:31.306Z,42.80
2023-02-12T10:59:03.169Z,41.77
2023-02-12T11:01:34.594Z,47.20
2023-02-12T11:04:27.561Z,45.07
2023-02-12T11:07:03.740Z,44.97
2023-02-12T11:09:40.848Z,43.03
2023-02-12T11:12:22.892Z,49.13
2023-02-12T11:14:55.814Z,44.20
2023-02-12T11:17:29.935Z,37.00
2023-02-12T11:20:09.880Z,48.97
2023-02-12T11:22:40.082Z,41.47
2023-02-12T11:25:18.589Z,43.33
2023-02-12T11:28:03.133Z,41.03
2023-02-12T11:30:33.748Z,42.43
2023-02-12T11:33:19.706Z,38.27
2023-02-12T11:35:54.868Z,42.43
2023-02-12T11:38:31.297Z,38.20
2023-02-12T11:41:05.180Z,43.53
2023-02-12T11:43:40.237Z,38.73
2023-02-12T11:46:11.220Z,43.87
2023-02-12T11:48:44.408Z,38.90
2023-02-12T11:51:22.806Z,39.80
2023-02-12T11:53:55.246Z,42.87
2023-02-12T11:56:25.667Z,46.03
2023-02-12T11:59:15.988Z,45.30
2023-02-12T12:01:46.506Z,41.23
2023-02-12T12:04:20.626Z,40.00
2023-02-12T12:06:54.745Z,41.57
2023-02-12T12:09:29.683Z,42.30
2023-02-12T12:12:14.950Z,41.13
2023-02-12T12:15:04.237Z,36.00
2023-02-12T12:17:57.318Z,38.87
2023-02-12T12:20:31.230Z,35.10
2023-02-12T12:23:05.680Z,41.73
2023-02-12T12:25:43.460Z,37.10
2023-02-12T12:28:30.977Z,36.70
2023-02-12T12:31:09.857Z,34.97
2023-02-12T12:33:46.167Z,37.07
2023-02-12T12:36:55.157Z,41.53
2023-02-12T12:39:31.669Z,34.30
2023-02-12T12:42:28.255Z,34.60
2023-02-12T12:45:42.677Z,38.83
2023-02-12T12:48:26.153Z,35.67
2023-02-12T12:51:16.942Z,32.43
2023-02-12T12:53:58.037Z,36.77
2023-02-12T12:57:08.314Z,36.17
2023-02-12T13:00:01.659Z,34.27
2023-02-12T13:03:16.892Z,39.23
2023-02-12T13:06:19.923Z,33.27
2023-02-12T13:09:05.909Z,39.80
2023-02-12T13:11:45.525Z,38.37
2023-02-12T13:14:30.572Z,36.67
2023-02-12T13:17:09.271Z,40.23
2023-02-12T13:19:49.866Z,45.80
2023-02-12T13:22:26.905Z,40.07
2023-02-12T13:25:08.320Z,41.03
2023-02-12T13:27:40.900Z,40.10
2023-02-12T13:30:22.217Z,38.80
2023-02-12T13:33:01.964Z,37.63
2023-02-12T13:35:34.449Z,37.80
2023-02-12T13:38:06.501Z,37.63
2023-02-12T13:40:39.274Z,43.87
2023-02-12T13:43:23.160Z,40.17
2023-02-12T13:46:02.236Z,44.17
2023-02-12T13:48:44.249Z,38.43
2023-02-12T13:51:31.330Z,41.33
2023-02-12T13:54:15.810Z,39.37
2023-02-12T13:56:51.358Z,40.60
2023-02-12T13:59:44.612Z,38.57
2023-02-12T14:02:52.898Z,37.53
2023-02-12T14:05:26.718Z,41.53
2023-02-12T14:07:59.385Z,38.00
2023-02-12T14:10:33.625Z,38.57
2023-02-12T14:13:19.824Z,38.97
2023-02-12T14:15:53.317Z,35.33
2023-02-12T14:18:35.866Z,36.63
2023-02-12T14:21:45.345Z,38.27
2023-02-12T14:24:54.046Z,36.60
2023-02-12T14:27:32.029Z,36.73
2023-02-12T14:30:30.953Z,36.70
2023-02-12T14:33:11.884Z,33.80
2023-02-12T14:35:42.826Z,34.87
2023-02-12T14:38:47.526Z,40.13
2023-02-12T14:41:38.027Z,36.67
2023-02-12T14:44:41.743Z,40.07
2023-02-12T14:47:55.689Z,34.33
2023-02-12T14:50:34.452Z,35.17
2023-02-12T14:53:15.080Z,36.07
2023-02-12T14:55:49.777Z,33.50
2023-02-12T14:58:22.933Z,35.73
2023-02-12T15:00:56.711Z,35.27
2023-02-12T15:03:35.487Z,38.27
2023-02-12T15:06:12.733Z,33.00
2023-02-12T15:08:51.783Z,37.33
2023-02-12T15:11:32.769Z,34.40
2023-02-12T15:14:07.546Z,34.47
2023-02-12T15:16:47.770Z,36.93
2023-02-12T15:19:33.501Z,38.97
2023-02-12T15:22:03.394Z,36.37
2023-02-12T15:24:33.325Z,37.77
2023-02-12T15:27:03.935Z,31.37
2023-02-12T15:29:39.672Z,39.53
2023-02-12T15:32:12.757Z,38.83
2023-02-12T15:34:45.684Z,35.17
2023-02-12T15:37:23.930Z,33.37
2023-02-12T15:39:57.128Z,39.57
2023-02-12T15:42:34.246Z,32.57
2023-02-12T15:45:23.124Z,35.53
2023-02-12T15:48:21.561Z,37.80
2023-02-12T15:50:58.817Z,34.47
2023-02-12T15:53:31.199Z,34.43
2023-02-12T15:56:03.226Z,34.83
2023-02-12T15:58:35.916Z,33.80
2023-02-12T16:01:07.680Z,33.93
2023-02-12T16:03:39.694Z,35.77
2023-02-12T16:06:16.944Z,40.33
2023-02-12T16:08:51.380Z,39.63
2023-02-12T16:11:25.333Z,38.87
2023-02-12T16:13:57.646Z,33.93
2023-02-12T16:16:30.323Z,37.77
2023-02-12T16:19:10.089Z,36.00
2023-02-12T16:21:42.796Z,36.97
2023-02-12T16:24:26.233Z,38.00
2023-02-12T16:26:56.389Z,38.37
2023-02-12T16:29:26.747Z,33.33
2023-02-12T16:32:02.002Z,47.00
2023-02-12T16:34:35.440Z,38.73
2023-02-12T16:37:44.821Z,39.27
2023-02-12T16:40:36.973Z,39.17
2023-02-12T16:43:29.141Z,39.97
2023-02-12T16:46:08.025Z,35.80
2023-02-12T16:48:42.532Z,35.77
2023-02-12T16:51:25.030Z,35.10
2023-02-12T16:53:58.806Z,37.13
2023-02-12T16:56:32.784Z,35.03
2023-02-12T16:59:05.322Z,34.93
2023-02-12T17:01:37.584Z,39.77
2023-02-12T17:04:10.597Z,36.60
2023-02-12T17:06:40.490Z,34.30
2023-02-12T17:09:13.521Z,37.63
2023-02-12T17:11:43.845Z,34.53
2023-02-12T17:14:19.036Z,37.13
2023-02-12T17:16:50.518Z,38.17
2023-02-12T17:19:20.483Z,38.37
2023-02-12T17:21:52.063Z,36.67
2023-02-12T17:24:26.404Z,39.47
2023-02-12T17:26:57.160Z,43.57
2023-02-12T17:29:28.327Z,36.00
2023-02-12T17:31:58.563Z,37.30
2023-02-12T17:34:32.080Z,39.00
2023-02-12T17:37:10.184Z,40.00
2023-02-12T17:39:42.842Z,44.93
2023-02-12T17:42:12.698Z,44.87
2023-02-12T17:44:43.004Z,36.80
2023-02-12T17:47:13.090Z,40.07
2023-02-12T17:49:43.341Z,39.53
2023-02-12T17:52:13.315Z,37.77
2023-02-12T17:54:47.918Z,39.27
2023-02-12T17:57:18.726Z,38.10
2023-02-12T17:59:48.588Z,34.00
2023-02-12T18:02:18.468Z,40.10
2023-02-12T18:04:48.359Z,42.00
2023-02-12T18:07:18.401Z,40.00
2023-02-12T18:09:51.483Z,38.20
2023-02-12T18:12:21.418Z,39.83
2023-02-12T18:14:51.378Z,37.73
2023-02-12T18:17:21.171Z,40.73
2023-02-12T18:19:52.504Z,41.30
2023-02-12T18:22:22.913Z,40.20
2023-02-12T18:24:56.006Z,39.33
2023-02-12T18:27:25.917Z,44.40
2023-02-12T18:29:57.196Z,40.17
2023-02-12T18:32:27.373Z,43.27
2023-02-12T18:34:57.308Z,43.27
2023-02-12T18:37:27.172Z,39.00
2023-02-12T18:40:00.428Z,41.80
2023-02-12T18:42:32.848Z,39.33
2023-02-12T18:45:02.694Z,35.40
2023-02-12T18:47:32.516Z,42.27
2023-02-12T18:50:02.451Z,41.10
2023-02-12T18:52:32.255Z,41.07
2023-02-12T18:55:04.654Z,38.63
2023-02-12T18:57:34.511Z,39.30
2023-02-12T19:00:05.087Z,41.43
2023-02-12T19:02:34.954Z,41.17
2023-02-12T19:05:04.821Z,37.80
2023-02-12T19:07:34.598Z,41.80
2023-02-12T19:10:07.629Z,41.93
2023-02-12T19:12:37.484Z,38.10
2023-02-12T19:15:08.914Z,44.63
2023-02-12T19:17:38.757Z,44.00
2023-02-12T19:20:10.313Z,37.77
2023-02-12T19:22:40.754Z,41.43
2023-02-12T19:25:13.585Z,39.53
2023-02-12T19:27:43.533Z,40.50
2023-02-12T19:30:14.890Z,43.60
2023-02-12T19:32:44.766Z,43.63
2023-02-12T19:35:14.755Z,40.07
2023-02-12T19:37:44.916Z,39.37
2023-02-12T19:40:17.946Z,42.10
2023-02-12T19:42:47.738Z,40.57
2023-02-12T19:45:18.077Z,43.90
2023-02-12T19:47:47.936Z,42.23
2023-02-12T19:50:17.734Z,42.40
2023-02-12T19:52:47.461Z,43.97
2023-02-12T19:55:20.067Z,40.30
2023-02-12T19:57:50.160Z,44.07
2023-02-12T20:00:20.288Z,39.43
2023-02-12T20:02:50.433Z,42.00
2023-02-12T20:05:20.383Z,41.63
2023-02-12T20:07:50.235Z,41.53
2023-02-12T20:10:23.046Z,40.90
2023-02-12T20:12:52.871Z,45.70
2023-02-12T20:15:25.583Z,44.77
2023-02-12T20:17:56.235Z,44.70
2023-02-12T20:20:26.251Z,42.37
2023-02-12T20:22:56.399Z,42.53
2023-02-12T20:25:30.209Z,47.83
2023-02-12T20:28:01.632Z,44.10
2023-02-12T20:30:31.630Z,42.57
2023-02-12T20:33:01.469Z,45.03
2023-02-12T20:35:31.662Z,40.27
2023-02-12T20:38:01.462Z,41.33
2023-02-12T20:40:36.356Z,41.07
2023-02-12T20:43:06.222Z,41.90
2023-02-12T20:45:38.008Z,47.17
2023-02-12T20:48:07.936Z,40.53
2023-02-12T20:50:37.928Z,44.87
2023-02-12T20:53:08.122Z,40.53
2023-02-12T20:55:40.712Z,42.33
2023-02-12T20:58:10.574Z,37.30
2023-02-12T21:00:40.560Z,37.60
2023-02-12T21:03:10.406Z,36.33
2023-02-12T21:05:40.431Z,39.67
2023-02-12T21:08:10.247Z,40.03
2023-02-12T21:10:42.959Z,37.23
2023-02-12T21:13:13.285Z,36.53
2023-02-12T21:15:43.498Z,39.97
2023-02-12T21:18:13.434Z,37.47
2023-02-12T21:20:43.645Z,41.67
2023-02-12T21:23:13.866Z,33.73
2023-02-12T21:25:46.457Z,33.87
2023-02-12T21:28:16.427Z,37.33
2023-02-12T21:30:46.472Z,35.93
2023-02-12T21:33:16.370Z,37.13
2023-02-12T21:35:46.441Z,31.57
2023-02-12T21:38:16.578Z,34.13
2023-02-12T21:40:49.128Z,33.00
2023-02-12T21:43:18.920Z,32.77
2023-02-12T21:45:56.620Z,32.23
2023-02-12T21:48:26.489Z,31.50
2023-02-12T21:50:56.473Z,37.90
2023-02-12T21:53:26.663Z,29.67
2023-02-12T21:55:59.330Z,31.80
2023-02-12T21:58:29.255Z,31.73
2023-02-12T22:01:00.091Z,31.40
2023-02-12T22:03:30.311Z,32.23
2023-02-12T22:06:03.103Z,30.60
2023-02-12T22:08:33.406Z,24.67
2023-02-12T22:11:09.200Z,27.27
2023-02-12T22:13:39.961Z,29.00
2023-02-12T22:16:13.837Z,30.40
2023-02-12T22:18:44.773Z,28.93
2023-02-12T22:21:17.377Z,24.13
2023-02-12T22:23:48.428Z,27.47
2023-02-12T22:26:22.556Z,25.20
2023-02-12T22:28:53.942Z,23.43
2023-02-12T22:31:26.325Z,26.43
2023-02-12T22:33:59.074Z,20.63
2023-02-12T22:36:29.569Z,25.00
2023-02-12T22:39:02.436Z,24.23
2023-02-12T22:41:35.540Z,24.97
2023-02-12T22:44:06.899Z,26.40
2023-02-12T22:46:36.788Z,21.20
2023-02-12T22:49:06.655Z,25.40
2023-02-12T22:51:39.610Z,27.57
2023-02-12T22:54:10.577Z,23.10
2023-02-12T22:56:43.470Z,26.67
2023-02-12T22:59:14.937Z,25.87
2023-02-12T23:01:45.209Z,20.37
2023-02-12T23:04:18.664Z,24.23
2023-02-12T23:06:49.438Z,23.40
2023-02-12T23:09:20.689Z,24.20
2023-02-12T23:11:53.078Z,22.93
2023-02-12T23:14:23.075Z,21.87
2023-02-12T23:16:52.862Z,24.90
2023-02-12T23:19:22.827Z,24.00
2023-02-12T23:21:52.577Z,23.67
2023-02-12T23:24:22.672Z,24.30
2023-02-12T23:26:55.285Z,20.57
2023-02-12T23:29:25.192Z,20.03
2023-02-12T23:31:55.052Z,22.43
2023-02-12T23:34:25.133Z,20.87
2023-02-12T23:36:54.869Z,19.77
2023-02-12T23:39:24.621Z,21.50
2023-02-12T23:41:56.941Z,20.27
2023-02-12T23:44:26.896Z,16.93
2023-02-12T23:46:56.797Z,22.40
2023-02-12T23:49:26.843Z,18.47
2023-02-12T23:51:56.946Z,21.03
2023-02-12T23:54:26.684Z,18.37
2023-02-12T23:56:59.110Z,19.77
2023-02-12T23:59:29.851Z,21.47
